Little Silver, NJ (07739)

9:43 AM EDT on April 27, 2015 (GMT -0400)
Shrewsbury | | Change Station
CLOSE
Current Station
Personal Weather Station
Location: Shrewsbury, NJ
Elevation: 6 ft
Nearby Weather Stations

Elev 6 ft 40.32 °N, 74.06 °W | Updated 3 minutes ago

Overcast
Overcast
51.6 °F
Feels Like 51.6 °F
N
2.4
Wind Variable Wind from North
Gusts 3.8 mph

Today
High -- | Low -- °F
--% Chance of Precip.
Yesterday
High -- | Low -- °F
Precip. -- in
6:01 AM 7:47 PM
Waxing Gibbous, 65% visible
Pressure 29.70 in
Visibility 10.0 miles
Clouds Overcast 7000 ft
Dew Point 36 °F
Humidity 55%
Rainfall 0.00 in
Snow Depth Not available.
UV 2 out of 12
Pollen 9.30 out of 12
Air Quality Not available.
Flu Activity Local Activity
METAR KBLM 271335Z AUTO 29010KT 10SM OVC070 10/M01 A2970 RMK AO1

More Conditions Fewer Conditions

Pressure 29.70 in
Visibility 10.0 miles
Clouds Overcast 7000 ft
Dew Point 36 °F
Humidity 55%
Rainfall 0.00 in
Snow Depth Not available.
UV 2 out of 12
Pollen 9.30 out of 12
Air Quality Not available.
Flu Activity Local Activity
METAR KBLM 271335Z AUTO 29010KT 10SM OVC070 10/M01 A2970 RMK AO1

More Conditions Fewer Conditions

10-Day Weather Forecast

Almanac

Astronomy

Apr. 27, 2015 Rise Set
Actual Time
Civil Twilight
Nautical Twilight
Astronomical Twilight
Moon
Length of Visible Light
Length of Day
Tomorrow will be .
, % of the Moon is Illuminated

Today's Extremes

State Highs State Lows

Community

WunderPhotos

Upload Photos

1,817,309 photos uploaded!

WunderBlogs® & News

Nearby

Air Quality

  Air Quality AQ Index Pollutant
Not available.

Snow Depth

Station Depth Elevation

Earthquake Activity

City Distance Mag. Time & Date
Minimum magnitude displayed is 2.5.

Coastal Water Temperatures

Place Temperature

Stations

Nearby Weather Stations

Station Location Temp. Windchill Dew Point Humidity Wind Precip. Elev Updated Type